Main page
METAR-TAF:

METAR-TAF

Airports :

Algeciras, Spain

Algeciras Heliport

latitude: 36-07-44N, longitude: 05-26-28W, elevation: 30 m

Current weather observation

The report was made 39 minutes ago, at 01:30 UTC
Wind 6 kt from the West, varying between Southwest and North/Northwest
Temperature 19°C
Humidity 78%
Pressure 1017 hPa
Visibility 10 km or more
Few clouds at a height of 2400 ft

METAR: LEAG 290130Z AUTO 28006KT 230V340 9999 FEW024 19/15 Q1017

Time: 04:09 (02:09 UTC)


TAF: missing

Weather observations and forecasts of more than 4000 airports (METAR and TAF reports).

The available stations are represented by yellow and red dots on the map.

Hover mouse over dot to see the name of the station.

Then click to see weather observations and forecasts.

To change the map : click on the green buttons with a black cross to zoom in, on the green button with a dash to zoom out, or on the green arrows for adjacent maps.


METAR-TAF: